Napier Aerodrome, New Zealand
Current Conditions -  °F | °C
As of 8:00 AM on Friday 19 Dec 2014 (Local Time) from NZWN Reporting Station
Overcast Overcast  
Wind Chill: 61°   Ceiling: 1100
Heat Index: 61°   Visibility: 6mi
Dew Point: 57°   Wind: 21mph
Humidity: 88%   Direction: 360°N
Pressure: 29.97"   Gusts: NA
Location:  39.45°S, 176.85°E
Report Text: NZWN 182000Z AUTO 36018KT 9999 OVC011/// 16/14 Q1015 NOSIG
Loading
Personal Weather Stations






























Interactive Weather Map New forecast layout! Learn more

10-Day Weather Forecast

Advertisements
Track Severe Weather on mobile